Time;durP1;ratioP1;P1;durP2;ratioP2;P2;SDS_P1;SDS_P2;PMS_P1;PMS_P2;Temp;Humidity;BMP_temperature;BMP_pressure;BME280_temperature;BME280_humidity;BME280_pressure;Samples;Min_cycle;Max_cycle;Signal;HPM_P1;HPM_P2
2023/01/19 00:01:38;;;;;;;11.73;4.72;;;0.10;99.90;;;;;;5043186;28;20535;-63
2023/01/19 00:04:04;;;;;;;9.73;5.25;;;0.00;99.90;;;;;;5037641;28;20037;-63
2023/01/19 00:06:30;;;;;;;11.63;5.32;;;-0.10;99.90;;;;;;5041275;28;20036;-64
2023/01/19 00:08:56;;;;;;;11.60;5.95;;;-0.10;99.90;;;;;;5040616;28;20085;-63
2023/01/19 00:11:21;;;;;;;12.45;5.28;;;-0.20;99.90;;;;;;5041135;28;20445;-63
2023/01/19 00:13:50;;;;;;;12.25;5.00;;;-0.30;99.90;;;;;;5039886;28;20036;-63
2023/01/19 00:16:17;;;;;;;13.23;5.97;;;-0.30;99.90;;;;;;5019201;28;20523;-62
2023/01/19 00:18:44;;;;;;;14.15;6.43;;;-0.50;99.90;;;;;;5047932;28;20104;-63
2023/01/19 00:21:10;;;;;;;14.43;6.35;;;-0.50;99.90;;;;;;5058132;28;20033;-63
2023/01/19 00:23:36;;;;;;;14.67;5.30;;;-0.50;99.90;;;;;;5053944;28;20024;-64
2023/01/19 00:26:02;;;;;;;12.73;6.35;;;-0.50;99.90;;;;;;5063908;28;20098;-63
2023/01/19 00:28:27;;;;;;;15.40;5.57;;;-0.50;99.90;;;;;;5033882;28;20028;-63
2023/01/19 00:30:53;;;;;;;13.27;5.63;;;-0.40;99.90;;;;;;5056527;28;20028;-64
2023/01/19 00:33:18;;;;;;;14.35;5.93;;;-0.40;99.90;;;;;;5055530;28;20028;-63
2023/01/19 00:35:44;;;;;;;10.18;5.82;;;-0.30;99.90;;;;;;5049339;28;20437;-63
2023/01/19 00:38:11;;;;;;;16.37;8.80;;;-0.30;99.90;;;;;;5023505;28;20049;-63
2023/01/19 00:40:36;;;;;;;12.90;6.73;;;-0.30;99.90;;;;;;5042127;28;20044;-63
2023/01/19 00:43:03;;;;;;;15.93;6.85;;;-0.30;99.90;;;;;;5046968;28;20029;-63
2023/01/19 00:45:29;;;;;;;11.35;6.10;;;-0.30;99.90;;;;;;5045752;28;20527;-62
2023/01/19 00:47:57;;;;;;;13.32;6.47;;;-0.30;99.90;;;;;;5043524;28;20053;-63
2023/01/19 00:50:25;;;;;;;13.30;6.60;;;-0.40;99.90;;;;;;5056772;28;20025;-63
2023/01/19 00:52:53;;;;;;;11.25;5.78;;;-0.40;99.90;;;;;;5058657;28;20028;-63
2023/01/19 00:55:19;;;;;;;15.55;6.65;;;-0.30;99.90;;;;;;5048882;28;20036;-63
2023/01/19 00:57:44;;;;;;;13.65;6.85;;;-0.20;99.90;;;;;;5045744;28;20025;-63
2023/01/19 01:00:16;;;;;;;15.70;6.50;;;-0.20;99.90;;;;;;5049978;28;20450;-64
2023/01/19 01:02:42;;;;;;;18.98;7.45;;;-0.10;99.90;;;;;;5054796;28;20035;-64
2023/01/19 01:05:09;;;;;;;13.20;6.50;;;0.00;99.90;;;;;;5043830;28;20025;-63
2023/01/19 01:07:40;;;;;;;20.85;6.57;;;0.00;99.90;;;;;;5031884;28;20051;-63
2023/01/19 01:10:21;;;;;;;14.90;6.78;;;0.00;99.90;;;;;;5058311;28;20478;-63
2023/01/19 01:12:47;;;;;;;15.63;6.20;;;0.10;99.90;;;;;;5045330;28;20048;-64
2023/01/19 01:15:14;;;;;;;10.23;5.60;;;0.10;99.90;;;;;;5028757;28;20107;-63
2023/01/19 01:17:46;;;;;;;18.23;6.28;;;0.10;99.90;;;;;;5040649;28;20496;-64
2023/01/19 01:20:17;;;;;;;13.27;6.95;;;0.10;99.90;;;;;;5052085;28;20056;-63
2023/01/19 01:22:45;;;;;;;11.23;5.28;;;0.00;99.90;;;;;;5046429;28;20029;-63
2023/01/19 01:25:12;;;;;;;17.83;7.43;;;0.00;99.90;;;;;;5024763;28;20072;-63
2023/01/19 01:27:38;;;;;;;13.23;6.38;;;0.00;99.90;;;;;;5039389;28;20152;-63
2023/01/19 01:30:05;;;;;;;10.98;6.40;;;0.00;99.90;;;;;;5038972;28;20761;-64
2023/01/19 01:32:30;;;;;;;11.40;6.03;;;0.00;99.90;;;;;;5045279;28;20667;-63
2023/01/19 01:34:56;;;;;;;16.38;7.00;;;-0.10;99.90;;;;;;5058341;28;20040;-64
2023/01/19 01:37:21;;;;;;;11.15;5.80;;;-0.10;99.90;;;;;;5050672;28;20103;-64
2023/01/19 01:39:47;;;;;;;14.27;7.18;;;-0.10;99.90;;;;;;5067696;22;20074;-66
2023/01/19 01:42:16;;;;;;;19.30;7.78;;;-0.10;99.90;;;;;;4979783;28;20040;-65
2023/01/19 01:44:53;;;;;;;23.58;9.07;;;-0.10;99.90;;;;;;4982796;28;20045;-66
2023/01/19 01:47:18;;;;;;;12.15;6.35;;;0.00;99.90;;;;;;4978866;28;20118;-66
2023/01/19 01:49:45;;;;;;;12.35;6.53;;;0.00;99.90;;;;;;4977935;28;20476;-66
2023/01/19 01:52:13;;;;;;;15.25;6.45;;;0.10;99.90;;;;;;4983004;28;20053;-66
2023/01/19 01:54:39;;;;;;;12.55;6.80;;;0.10;99.90;;;;;;4991534;28;20042;-67
2023/01/19 01:57:11;;;;;;;14.30;6.65;;;0.20;99.90;;;;;;4986444;28;20034;-66
2023/01/19 01:59:40;;;;;;;13.43;7.03;;;0.20;99.90;;;;;;4987291;28;20022;-66
2023/01/19 02:05:04;;;;;;;24.92;11.80;;;0.20;99.90;;;;;;4988478;28;20077;-67
2023/01/19 02:13:20;;;;;;;19.60;7.32;;;0.20;99.90;;;;;;4988793;28;20452;-66
2023/01/19 02:15:58;;;;;;;13.68;6.10;;;0.20;99.90;;;;;;4987906;28;20014;-67
2023/01/19 02:18:27;;;;;;;19.00;7.85;;;0.30;99.90;;;;;;4981875;28;20062;-66
2023/01/19 02:21:26;;;;;;;14.07;7.32;;;0.40;99.90;;;;;;4988514;28;20031;-66
2023/01/19 02:23:53;;;;;;;11.40;5.85;;;0.40;99.90;;;;;;4985527;28;20140;-66
2023/01/19 02:26:32;;;;;;;11.35;5.55;;;0.40;99.90;;;;;;4990691;28;20030;-66
2023/01/19 02:29:01;;;;;;;11.45;5.40;;;0.50;99.90;;;;;;4987786;28;20075;-66
2023/01/19 02:31:28;;;;;;;11.70;5.30;;;0.50;99.90;;;;;;4986650;28;20463;-66
2023/01/19 02:33:54;;;;;;;16.85;6.18;;;0.50;99.90;;;;;;4981593;28;20149;-67
2023/01/19 02:36:24;;;;;;;10.77;5.03;;;0.50;99.90;;;;;;4982766;28;20065;-66
2023/01/19 02:38:52;;;;;;;12.77;5.70;;;0.50;99.90;;;;;;4969807;28;20512;-66
2023/01/19 02:41:21;;;;;;;9.00;5.10;;;0.50;99.90;;;;;;4988623;28;20234;-66
2023/01/19 02:43:48;;;;;;;10.93;5.50;;;0.50;99.90;;;;;;4983790;28;20041;-67
2023/01/19 02:46:14;;;;;;;12.13;5.05;;;0.50;99.90;;;;;;4989321;28;20026;-66
2023/01/19 02:48:40;;;;;;;12.88;4.85;;;0.50;99.90;;;;;;4996429;28;20088;-66
2023/01/19 02:51:16;;;;;;;10.10;5.30;;;0.50;99.90;;;;;;4983155;28;21075;-66
2023/01/19 02:53:57;;;;;;;14.40;5.63;;;0.50;99.90;;;;;;4980360;28;20496;-66
2023/01/19 02:56:39;;;;;;;10.13;5.03;;;0.50;99.90;;;;;;4990439;28;20027;-66
2023/01/19 02:59:22;;;;;;;9.25;4.65;;;0.50;99.90;;;;;;4983098;28;20030;-66
2023/01/19 03:02:16;;;;;;;8.23;4.70;;;0.50;99.90;;;;;;4987912;28;20030;-66
2023/01/19 03:05:07;;;;;;;12.02;5.05;;;0.50;99.90;;;;;;4969019;28;20300;-66
2023/01/19 03:08:02;;;;;;;14.95;6.20;;;0.50;99.90;;;;;;4984727;28;20034;-65
2023/01/19 03:10:36;;;;;;;;;;;0.50;99.90;;;;;;4984870;28;20061;-66
2023/01/19 03:13:08;;;;;;;;;;;0.50;99.90;;;;;;4985874;28;20371;-66
2023/01/19 03:15:38;;;;;;;7.85;4.65;;;0.50;99.90;;;;;;4985326;28;20530;-66
2023/01/19 03:18:08;;;;;;;10.70;4.70;;;0.50;99.90;;;;;;4984016;28;20037;-66
2023/01/19 03:20:35;;;;;;;7.90;4.85;;;0.40;99.90;;;;;;4987338;28;20050;-66
2023/01/19 03:23:05;;;;;;;10.98;4.82;;;0.40;99.90;;;;;;4987186;28;20629;-66
2023/01/19 03:25:35;;;;;;;7.53;4.20;;;0.50;99.90;;;;;;4979284;28;20030;-65
2023/01/19 03:28:03;;;;;;;10.65;4.72;;;0.50;99.90;;;;;;4984916;28;20023;-66
2023/01/19 03:30:34;;;;;;;8.55;4.88;;;0.50;99.90;;;;;;4985088;28;20042;-67
2023/01/19 03:33:14;;;;;;;8.05;4.28;;;0.40;99.90;;;;;;4985269;28;20031;-66
2023/01/19 03:35:47;;;;;;;11.30;4.97;;;0.40;99.90;;;;;;4986337;28;20614;-66
2023/01/19 03:38:21;;;;;;;12.32;5.07;;;0.40;99.90;;;;;;4966537;28;20030;-65
2023/01/19 03:40:47;;;;;;;9.13;4.90;;;0.50;99.90;;;;;;4987407;28;20045;-67
2023/01/19 03:43:15;;;;;;;6.75;3.97;;;0.50;99.90;;;;;;4989684;28;20042;-68
2023/01/19 03:45:41;;;;;;;7.28;3.50;;;0.50;99.90;;;;;;4988069;28;20469;-66
2023/01/19 03:48:07;;;;;;;8.05;3.88;;;0.50;99.90;;;;;;4990136;28;20567;-67
2023/01/19 03:50:33;;;;;;;13.98;4.28;;;0.50;99.90;;;;;;4987259;28;20030;-66
2023/01/19 03:53:09;;;;;;;10.50;3.60;;;0.60;99.90;;;;;;4986566;28;20084;-66
2023/01/19 03:55:38;;;;;;;10.77;4.85;;;0.60;99.90;;;;;;4987140;28;20030;-66
2023/01/19 03:58:04;;;;;;;9.27;4.03;;;0.60;99.90;;;;;;4989121;28;20144;-67
2023/01/19 04:00:30;;;;;;;7.40;4.43;;;0.60;99.90;;;;;;4988230;28;20058;-66
2023/01/19 04:02:56;;;;;;;10.13;3.58;;;0.60;99.90;;;;;;4987725;28;20494;-66
2023/01/19 04:05:22;;;;;;;6.43;4.78;;;0.60;99.90;;;;;;4987021;28;20037;-66
2023/01/19 04:07:49;;;;;;;7.07;3.60;;;0.60;99.90;;;;;;4990923;28;20022;-66
2023/01/19 04:10:16;;;;;;;6.55;3.75;;;0.60;99.90;;;;;;4988062;28;20049;-66
2023/01/19 04:12:42;;;;;;;7.40;4.18;;;0.60;99.90;;;;;;4982441;28;20038;-66
2023/01/19 04:15:07;;;;;;;11.23;3.95;;;0.60;99.90;;;;;;4978396;28;20480;-65
2023/01/19 04:17:33;;;;;;;8.70;4.30;;;0.50;99.90;;;;;;4982332;28;20029;-65
2023/01/19 04:19:59;;;;;;;5.53;3.90;;;0.60;99.90;;;;;;4974346;28;20038;-66
2023/01/19 04:22:24;;;;;;;8.57;3.92;;;0.60;99.90;;;;;;4985726;28;20120;-67
2023/01/19 04:24:50;;;;;;;12.20;4.45;;;0.60;99.90;;;;;;4986360;28;20030;-66
2023/01/19 04:27:16;;;;;;;8.38;4.13;;;0.60;99.90;;;;;;4986611;28;20666;-66
2023/01/19 04:29:42;;;;;;;9.25;4.55;;;0.60;99.90;;;;;;4981821;28;20053;-67
2023/01/19 04:32:08;;;;;;;8.02;3.63;;;0.60;99.90;;;;;;4986760;28;20026;-66
2023/01/19 04:34:34;;;;;;;7.18;3.60;;;0.60;99.90;;;;;;4984991;28;20027;-66
2023/01/19 04:36:59;;;;;;;8.95;3.97;;;0.60;99.90;;;;;;4985589;28;20030;-67
2023/01/19 04:39:26;;;;;;;9.55;4.00;;;0.60;99.90;;;;;;4961641;28;20049;-67
2023/01/19 04:41:52;;;;;;;7.18;4.13;;;0.60;99.90;;;;;;4986046;28;20034;-66
2023/01/19 04:44:17;;;;;;;8.07;4.43;;;0.60;99.90;;;;;;4983383;28;20061;-66
2023/01/19 04:46:43;;;;;;;8.63;3.85;;;0.60;99.90;;;;;;4984202;28;20026;-66
2023/01/19 04:49:09;;;;;;;8.88;4.32;;;0.60;99.90;;;;;;4988803;28;20090;-67
2023/01/19 04:51:35;;;;;;;9.85;4.18;;;0.70;99.90;;;;;;4981625;28;20084;-66
2023/01/19 04:54:01;;;;;;;9.38;4.60;;;0.70;99.90;;;;;;4986560;28;20030;-66
2023/01/19 04:56:28;;;;;;;11.93;4.97;;;0.70;99.90;;;;;;4985943;28;20033;-66
2023/01/19 04:58:53;;;;;;;9.40;5.15;;;0.60;99.90;;;;;;4985056;28;20034;-66
2023/01/19 05:01:19;;;;;;;10.27;4.97;;;0.70;99.90;;;;;;4983398;28;20062;-67
2023/01/19 05:03:45;;;;;;;11.80;4.13;;;0.60;99.90;;;;;;4982733;28;21067;-66
2023/01/19 05:06:11;;;;;;;11.15;5.30;;;0.70;99.90;;;;;;4990630;28;20038;-66
2023/01/19 05:08:37;;;;;;;13.05;4.97;;;0.70;99.90;;;;;;4985940;28;20057;-66
2023/01/19 05:11:02;;;;;;;10.30;4.82;;;0.70;99.90;;;;;;4979037;28;20493;-66
2023/01/19 05:13:28;;;;;;;8.60;3.80;;;0.70;99.90;;;;;;4986852;28;20042;-67
2023/01/19 05:15:53;;;;;;;13.45;5.32;;;0.70;99.90;;;;;;4987496;28;20085;-66
2023/01/19 05:18:19;;;;;;;11.70;4.63;;;0.80;99.90;;;;;;4983505;28;20571;-66
2023/01/19 05:20:45;;;;;;;12.05;4.35;;;0.80;99.90;;;;;;4986780;28;20031;-66
2023/01/19 05:23:11;;;;;;;8.27;4.38;;;0.80;99.90;;;;;;4980613;28;20107;-66
2023/01/19 05:25:36;;;;;;;8.77;4.70;;;0.80;99.90;;;;;;4980759;28;20022;-66
2023/01/19 05:28:02;;;;;;;11.10;4.93;;;0.80;99.90;;;;;;4980443;28;20026;-66
2023/01/19 05:30:28;;;;;;;7.63;4.88;;;0.80;99.90;;;;;;4982240;28;20031;-66
2023/01/19 05:32:54;;;;;;;8.55;4.97;;;0.80;99.90;;;;;;4984178;28;20030;-66
2023/01/19 05:35:19;;;;;;;8.57;4.70;;;0.80;99.90;;;;;;4988382;28;20030;-66
2023/01/19 05:37:45;;;;;;;7.60;4.22;;;0.80;99.90;;;;;;4984138;28;20041;-66
2023/01/19 05:40:11;;;;;;;8.82;4.55;;;0.80;99.90;;;;;;4968079;28;20566;-67
2023/01/19 05:42:36;;;;;;;12.27;5.20;;;0.80;99.90;;;;;;4990806;28;20038;-66
2023/01/19 05:45:02;;;;;;;11.60;6.00;;;0.70;99.90;;;;;;4993458;28;20034;-66
2023/01/19 05:47:29;;;;;;;10.60;5.63;;;0.80;99.90;;;;;;4988284;28;20527;-66
2023/01/19 05:49:54;;;;;;;10.63;5.20;;;0.70;99.90;;;;;;4992817;28;20042;-67
2023/01/19 05:52:20;;;;;;;9.00;5.30;;;0.70;99.90;;;;;;4992452;28;20031;-66
2023/01/19 05:54:47;;;;;;;12.05;5.55;;;0.70;99.90;;;;;;4989640;28;20031;-66
2023/01/19 05:57:13;;;;;;;10.30;5.47;;;0.60;99.90;;;;;;4986228;28;20022;-66
2023/01/19 05:59:39;;;;;;;12.65;6.05;;;0.60;99.90;;;;;;4990004;28;20045;-65
2023/01/19 06:02:05;;;;;;;9.70;5.18;;;0.60;99.90;;;;;;4985540;28;20030;-67
2023/01/19 06:04:30;;;;;;;9.63;5.82;;;0.60;99.90;;;;;;4986721;28;20058;-66
2023/01/19 06:06:56;;;;;;;11.45;5.22;;;0.60;99.90;;;;;;4990014;28;20034;-66
2023/01/19 06:09:21;;;;;;;14.77;5.95;;;0.60;99.90;;;;;;4988150;28;20029;-66
2023/01/19 06:11:47;;;;;;;10.52;5.47;;;0.60;99.90;;;;;;4984278;28;20042;-66
2023/01/19 06:14:13;;;;;;;10.45;6.13;;;0.60;99.90;;;;;;4986536;28;20495;-66
2023/01/19 06:16:39;;;;;;;16.08;6.82;;;0.60;99.90;;;;;;4989212;28;20054;-66
2023/01/19 06:19:05;;;;;;;15.90;6.75;;;0.60;99.90;;;;;;4990549;28;20109;-66
2023/01/19 06:21:31;;;;;;;17.35;7.22;;;0.50;99.90;;;;;;4994928;28;20058;-66
2023/01/19 06:23:56;;;;;;;13.63;6.80;;;0.50;99.90;;;;;;4988873;28;20090;-66
2023/01/19 06:26:22;;;;;;;14.38;6.55;;;0.50;99.90;;;;;;4990715;28;20034;-67
2023/01/19 06:28:50;;;;;;;15.85;7.95;;;0.50;99.90;;;;;;4986589;28;21046;-66
2023/01/19 06:31:15;;;;;;;17.77;7.07;;;0.50;99.90;;;;;;4983305;28;20056;-66
2023/01/19 06:33:41;;;;;;;10.45;6.15;;;0.50;99.90;;;;;;4985820;28;20493;-66
2023/01/19 06:36:07;;;;;;;15.10;7.80;;;0.50;99.90;;;;;;4989953;28;20022;-66
2023/01/19 06:38:32;;;;;;;10.18;5.57;;;0.50;99.90;;;;;;4973588;28;20053;-67
2023/01/19 06:40:58;;;;;;;16.15;8.55;;;0.50;99.90;;;;;;4987240;28;20042;-65
2023/01/19 06:43:24;;;;;;;16.92;7.70;;;0.50;99.90;;;;;;4986444;28;20101;-66
2023/01/19 06:45:50;;;;;;;12.90;7.72;;;0.50;99.90;;;;;;4985626;28;20031;-66
2023/01/19 06:48:17;;;;;;;14.52;7.28;;;0.40;99.90;;;;;;4988130;28;20046;-66
2023/01/19 06:50:46;;;;;;;13.07;7.63;;;0.40;99.90;;;;;;4989824;28;20026;-68
2023/01/19 06:53:15;;;;;;;21.95;7.57;;;0.40;99.90;;;;;;4991948;28;20097;-66
2023/01/19 06:55:43;;;;;;;12.13;6.90;;;0.40;99.90;;;;;;4980599;28;20035;-66
2023/01/19 06:58:10;;;;;;;16.00;7.68;;;0.40;99.90;;;;;;4982778;28;20484;-65
2023/01/19 07:00:35;;;;;;;14.77;7.80;;;0.40;99.90;;;;;;4981332;28;20412;-65
2023/01/19 07:03:01;;;;;;;17.27;7.30;;;0.40;99.90;;;;;;4979759;28;20019;-65
2023/01/19 07:05:27;;;;;;;16.10;8.50;;;0.40;99.90;;;;;;4984966;28;20560;-66
2023/01/19 07:07:54;;;;;;;16.70;7.90;;;0.50;99.90;;;;;;4988363;28;20086;-67
2023/01/19 07:10:20;;;;;;;13.98;6.63;;;0.50;99.90;;;;;;4981566;28;20022;-69
2023/01/19 07:12:46;;;;;;;12.02;6.95;;;0.50;99.90;;;;;;4985578;28;20038;-67
2023/01/19 07:15:16;;;;;;;11.48;7.13;;;0.50;99.90;;;;;;4987833;28;20030;-66
2023/01/19 07:17:42;;;;;;;10.27;6.40;;;0.50;99.90;;;;;;4985573;28;20435;-66
2023/01/19 07:20:11;;;;;;;9.23;5.65;;;0.50;99.90;;;;;;4984843;28;20488;-66
2023/01/19 07:22:37;;;;;;;15.05;6.72;;;0.50;99.90;;;;;;4989844;28;20077;-66
2023/01/19 07:25:03;;;;;;;12.82;6.55;;;0.50;99.90;;;;;;4989411;28;20513;-66
2023/01/19 07:27:29;;;;;;;13.00;6.90;;;0.50;99.90;;;;;;4993902;28;20072;-65
2023/01/19 07:29:54;;;;;;;14.57;7.70;;;0.60;99.90;;;;;;4983786;28;20061;-65
2023/01/19 07:32:20;;;;;;;10.50;6.82;;;0.60;99.90;;;;;;4983866;28;20570;-66
2023/01/19 07:34:46;;;;;;;20.25;12.90;;;0.60;99.90;;;;;;4990316;28;20069;-65
2023/01/19 07:37:12;;;;;;;24.50;12.80;;;0.60;99.90;;;;;;4983242;28;20027;-66
2023/01/19 07:39:37;;;;;;;11.30;6.45;;;0.60;99.90;;;;;;4974795;28;20043;-65
2023/01/19 07:42:03;;;;;;;8.35;4.90;;;0.60;99.90;;;;;;4984972;28;20053;-66
2023/01/19 07:44:29;;;;;;;9.43;5.50;;;0.60;99.90;;;;;;4981658;28;20026;-65
2023/01/19 07:46:54;;;;;;;10.80;5.38;;;0.60;99.90;;;;;;4982948;28;20030;-66
2023/01/19 07:49:20;;;;;;;6.57;4.20;;;0.60;99.90;;;;;;4990676;28;20065;-66
2023/01/19 07:51:46;;;;;;;7.38;4.88;;;0.60;99.90;;;;;;4986118;28;20038;-65
2023/01/19 07:54:11;;;;;;;7.72;4.47;;;0.60;99.90;;;;;;4989670;28;20073;-66
2023/01/19 07:56:37;;;;;;;11.85;6.78;;;0.70;99.90;;;;;;4985060;28;20428;-66
2023/01/19 07:59:02;;;;;;;10.80;5.65;;;0.70;99.90;;;;;;4986323;28;20058;-66
2023/01/19 08:01:28;;;;;;;8.07;5.00;;;0.70;99.90;;;;;;4987053;28;20675;-65
2023/01/19 08:03:54;;;;;;;8.32;5.20;;;0.70;99.90;;;;;;4986624;28;20030;-66
2023/01/19 08:06:24;;;;;;;9.00;5.38;;;0.70;99.90;;;;;;4987215;28;20039;-66
2023/01/19 08:08:50;;;;;;;9.73;5.53;;;0.70;99.90;;;;;;4984408;28;20080;-66
2023/01/19 08:11:16;;;;;;;9.25;5.25;;;0.70;99.90;;;;;;4983486;28;20038;-67
2023/01/19 08:13:42;;;;;;;12.20;7.40;;;0.70;99.90;;;;;;4990267;28;20514;-66
2023/01/19 08:16:08;;;;;;;17.33;9.68;;;0.80;99.90;;;;;;4984447;28;20030;-67
2023/01/19 08:18:33;;;;;;;13.18;8.95;;;0.70;99.90;;;;;;4987267;28;20513;-66
2023/01/19 08:20:59;;;;;;;13.85;7.55;;;0.80;99.90;;;;;;4986295;28;20022;-67
2023/01/19 08:23:26;;;;;;;12.95;7.75;;;0.80;99.90;;;;;;4982905;28;20400;-65
2023/01/19 08:25:52;;;;;;;21.25;12.77;;;0.80;99.90;;;;;;4985200;28;20076;-66
2023/01/19 08:28:18;;;;;;;11.23;7.60;;;0.80;99.90;;;;;;4980594;28;20488;-66
2023/01/19 08:30:46;;;;;;;9.90;6.35;;;0.80;99.90;;;;;;4983386;28;20057;-66
2023/01/19 08:33:12;;;;;;;12.90;7.68;;;0.80;99.90;;;;;;4986582;28;20057;-66
2023/01/19 08:35:47;;;;;;;15.23;8.85;;;0.80;99.90;;;;;;4986955;28;20095;-66
2023/01/19 08:38:14;;;;;;;14.10;6.30;;;0.80;99.90;;;;;;4982935;28;20780;-66
2023/01/19 08:40:40;;;;;;;11.68;7.65;;;0.90;99.90;;;;;;4968240;28;20042;-66
2023/01/19 08:43:16;;;;;;;10.52;6.25;;;0.90;99.90;;;;;;4985436;28;20516;-66
2023/01/19 08:45:49;;;;;;;8.57;5.20;;;0.90;99.90;;;;;;4983185;28;20729;-66
2023/01/19 08:48:18;;;;;;;9.52;6.07;;;0.90;99.90;;;;;;4982868;28;20038;-66
2023/01/19 08:50:47;;;;;;;11.10;5.93;;;1.00;99.90;;;;;;4987267;28;20096;-66
2023/01/19 08:53:14;;;;;;;10.85;6.28;;;1.00;99.90;;;;;;4982334;28;20117;-65
2023/01/19 08:55:39;;;;;;;12.40;6.65;;;1.10;99.90;;;;;;4985577;28;20117;-66
2023/01/19 08:58:07;;;;;;;14.63;7.57;;;1.10;99.90;;;;;;4981405;28;20569;-66
2023/01/19 09:00:33;;;;;;;18.02;6.85;;;1.20;99.90;;;;;;4986564;28;20038;-65
2023/01/19 09:03:03;;;;;;;10.52;5.90;;;1.20;99.90;;;;;;4978897;28;20062;-67
2023/01/19 09:05:37;;;;;;;14.63;7.13;;;1.30;99.90;;;;;;4984648;28;20118;-67
2023/01/19 09:08:09;;;;;;;12.93;6.35;;;1.40;99.90;;;;;;4986236;28;20109;-65
2023/01/19 09:10:36;;;;;;;12.05;7.47;;;1.40;99.90;;;;;;4987554;28;20034;-66
2023/01/19 09:13:09;;;;;;;11.77;6.22;;;1.40;99.90;;;;;;4983177;28;20039;-66
2023/01/19 09:15:39;;;;;;;11.00;6.53;;;1.40;99.90;;;;;;4980833;28;20121;-67
2023/01/19 09:18:06;;;;;;;11.25;6.28;;;1.40;99.90;;;;;;4978922;28;20046;-66
2023/01/19 09:20:34;;;;;;;15.55;7.35;;;1.30;99.90;;;;;;4982243;28;20660;-65
2023/01/19 09:23:00;;;;;;;13.02;6.70;;;1.30;99.90;;;;;;4987636;28;20747;-66
2023/01/19 09:25:26;;;;;;;11.85;7.00;;;1.20;99.90;;;;;;4981519;28;20057;-66
2023/01/19 09:27:52;;;;;;;13.38;7.22;;;1.20;99.90;;;;;;4977906;28;21942;-66
2023/01/19 09:30:18;;;;;;;17.88;7.38;;;1.20;99.90;;;;;;4977949;28;20042;-66
2023/01/19 09:32:44;;;;;;;12.93;6.40;;;1.20;99.90;;;;;;4981578;28;20166;-66
2023/01/19 09:35:10;;;;;;;13.18;6.80;;;1.20;99.90;;;;;;4983719;28;20117;-67
2023/01/19 09:37:36;;;;;;;16.10;6.82;;;1.20;99.90;;;;;;4982418;28;20026;-65
2023/01/19 09:40:03;;;;;;;11.13;6.60;;;1.20;99.90;;;;;;4963477;28;20046;-66
2023/01/19 09:42:44;;;;;;;14.60;7.32;;;1.30;99.90;;;;;;4985851;28;20176;-66
2023/01/19 09:45:29;;;;;;;13.70;6.70;;;1.40;99.90;;;;;;4981851;28;20038;-66
2023/01/19 09:47:57;;;;;;;16.15;7.97;;;1.40;99.90;;;;;;4983259;28;20057;-66
2023/01/19 09:50:32;;;;;;;18.27;8.35;;;1.40;99.90;;;;;;4982814;28;20027;-65
2023/01/19 09:53:12;;;;;;;22.13;11.20;;;1.40;99.90;;;;;;4980225;28;20041;-65
2023/01/19 09:55:40;;;;;;;21.85;9.73;;;1.40;99.90;;;;;;4992558;28;20510;-65
2023/01/19 09:58:18;;;;;;;17.45;8.23;;;1.30;99.90;;;;;;4990258;28;20065;-65
2023/01/19 10:00:50;;;;;;;17.60;8.48;;;1.40;99.90;;;;;;4985162;28;20543;-66
2023/01/19 10:03:16;;;;;;;19.65;10.48;;;1.50;99.90;;;;;;4985389;28;20058;-65
2023/01/19 10:05:53;;;;;;;22.83;10.00;;;1.50;99.90;;;;;;4984842;28;20065;-65
2023/01/19 10:08:21;;;;;;;20.27;8.50;;;1.50;99.90;;;;;;4982791;28;20049;-65
2023/01/19 10:10:52;;;;;;;13.77;7.32;;;1.50;99.90;;;;;;4977181;28;20036;-66
2023/01/19 10:13:27;;;;;;;11.90;6.35;;;1.40;99.90;;;;;;4980241;28;20038;-66
2023/01/19 10:16:11;;;;;;;13.63;7.65;;;1.40;99.90;;;;;;4983492;28;20030;-66
2023/01/19 10:18:42;;;;;;;10.82;6.30;;;1.40;99.90;;;;;;4985668;28;20113;-66
2023/01/19 10:21:10;;;;;;;11.63;7.25;;;1.40;99.90;;;;;;4985926;28;20489;-66
2023/01/19 10:23:47;;;;;;;11.65;6.40;;;1.40;99.90;;;;;;4991549;28;20121;-66
2023/01/19 10:26:22;;;;;;;10.77;6.18;;;1.40;99.90;;;;;;4987950;28;20027;-65
2023/01/19 10:28:49;;;;;;;;;;;1.40;99.90;;;;;;4989359;28;20032;-66
2023/01/19 10:31:19;;;;;;;16.77;7.05;;;1.40;99.90;;;;;;4983465;28;19917;-65
2023/01/19 10:33:45;;;;;;;15.73;7.57;;;1.50;99.90;;;;;;4989035;28;20092;-66
2023/01/19 10:36:33;;;;;;;22.58;9.23;;;1.50;99.90;;;;;;5005010;28;20029;-66
2023/01/19 10:38:59;;;;;;;18.35;8.15;;;1.60;99.90;;;;;;4973123;28;20030;-65
2023/01/19 10:41:37;;;;;;;16.02;8.52;;;1.70;99.90;;;;;;4952678;28;20046;-65
2023/01/19 10:44:04;;;;;;;16.33;9.23;;;1.70;99.90;;;;;;4990036;28;20026;-65
2023/01/19 10:46:43;;;;;;;14.32;8.27;;;1.70;99.90;;;;;;4983401;28;20054;-66
2023/01/19 10:49:38;;;;;;;15.45;8.00;;;1.60;99.90;;;;;;4979596;28;20057;-66
2023/01/19 10:52:05;;;;;;;;;;;1.60;99.90;;;;;;4987617;28;20065;-65
2023/01/19 10:54:32;;;;;;;26.40;12.13;;;1.60;99.90;;;;;;4991044;28;19923;-65
2023/01/19 10:57:02;;;;;;;34.13;12.60;;;1.60;99.90;;;;;;4986116;28;20459;-66
2023/01/19 10:59:37;;;;;;;36.40;14.60;;;1.60;99.90;;;;;;4983274;28;20066;-65
2023/01/19 11:02:14;;;;;;;43.75;19.50;;;1.60;99.90;;;;;;4986187;28;20029;-66
2023/01/19 11:04:40;;;;;;;32.35;14.60;;;1.60;99.90;;;;;;4986111;28;20034;-66
2023/01/19 11:07:24;;;;;;;45.65;16.27;;;1.70;99.90;;;;;;4990322;28;20177;-65
2023/01/19 11:10:22;;;;;;;77.00;31.98;;;1.70;99.90;;;;;;4983738;28;20038;-65
2023/01/19 11:13:12;;;;;;;34.45;17.00;;;1.70;99.90;;;;;;4985147;28;20026;-66
2023/01/19 11:15:49;;;;;;;31.83;13.32;;;1.60;99.90;;;;;;4981739;28;20031;-66
2023/01/19 11:18:36;;;;;;;41.40;16.08;;;1.60;99.90;;;;;;4984194;28;20089;-66
2023/01/19 11:21:05;;;;;;;40.20;17.08;;;1.60;99.90;;;;;;5000033;28;20088;-65
2023/01/19 11:23:40;;;;;;;41.78;17.58;;;1.70;99.90;;;;;;4979791;28;20061;-65
2023/01/19 11:26:07;;;;;;;37.90;16.83;;;1.70;99.90;;;;;;4979457;28;20031;-65
2023/01/19 11:28:39;;;;;;;57.45;23.60;;;1.70;99.90;;;;;;4982869;28;20042;-66
2023/01/19 11:31:13;;;;;;;57.08;25.50;;;1.80;99.90;;;;;;4981281;28;20125;-66
2023/01/19 11:33:41;;;;;;;;;;;1.90;99.90;;;;;;4987415;28;20035;-65
2023/01/19 11:36:35;;;;;;;44.05;21.58;;;2.10;99.90;;;;;;4985254;28;19918;-64
2023/01/19 11:39:22;;;;;;;40.25;18.52;;;2.20;99.90;;;;;;4977672;28;20046;-65
2023/01/19 11:41:52;;;;;;;33.35;15.93;;;2.50;99.90;;;;;;4953595;28;20046;-65
2023/01/19 11:44:22;;;;;;;29.67;13.15;;;2.60;99.90;;;;;;4982348;28;20113;-65
2023/01/19 11:47:11;;;;;;;39.97;17.05;;;2.60;99.90;;;;;;4988532;28;20030;-65
2023/01/19 11:49:55;;;;;;;30.00;13.75;;;2.60;99.90;;;;;;4984003;28;20021;-66
2023/01/19 11:52:56;;;;;;;27.42;12.82;;;2.60;99.90;;;;;;4982930;28;20030;-65
2023/01/19 11:55:35;;;;;;;26.90;11.45;;;2.60;99.90;;;;;;4988251;28;20041;-66
2023/01/19 11:58:03;;;;;;;23.52;10.20;;;2.60;99.90;;;;;;4982503;28;20069;-67
2023/01/19 12:00:35;;;;;;;35.42;14.38;;;2.60;99.90;;;;;;4984034;28;20498;-65
2023/01/19 12:03:23;;;;;;;36.00;14.07;;;2.70;99.90;;;;;;4986806;28;20435;-66
2023/01/19 12:05:54;;;;;;;34.70;12.95;;;2.70;99.90;;;;;;4977269;28;20496;-65
2023/01/19 12:08:28;;;;;;;31.10;13.07;;;2.80;99.90;;;;;;4978671;28;20042;-66
2023/01/19 12:10:57;;;;;;;38.00;13.75;;;2.80;99.90;;;;;;4990353;28;20088;-66
2023/01/19 12:13:25;;;;;;;57.60;19.05;;;3.00;99.90;;;;;;4987320;28;20026;-66
2023/01/19 12:16:02;;;;;;;69.18;22.05;;;3.00;99.90;;;;;;4982329;28;20037;-65
2023/01/19 12:18:33;;;;;;;34.58;15.35;;;3.10;99.90;;;;;;4987219;28;20031;-66
2023/01/19 12:20:58;;;;;;;35.13;13.45;;;3.10;99.90;;;;;;4992811;28;20072;-65
2023/01/19 12:23:44;;;;;;;24.15;10.93;;;3.20;99.90;;;;;;4983446;28;20437;-66
2023/01/19 12:26:15;;;;;;;18.98;10.30;;;3.30;99.90;;;;;;4995153;28;20030;-65
2023/01/19 12:28:47;;;;;;;17.17;9.23;;;3.40;99.90;;;;;;4986273;28;20114;-65
2023/01/19 12:31:17;;;;;;;21.95;10.50;;;3.60;99.90;;;;;;4978346;28;20085;-66
2023/01/19 12:33:43;;;;;;;21.90;9.77;;;3.70;99.90;;;;;;4981655;28;20436;-66
2023/01/19 12:36:29;;;;;;;16.42;8.63;;;3.80;99.90;;;;;;4986601;28;20559;-65
2023/01/19 12:38:59;;;;;;;22.40;8.68;;;3.70;99.90;;;;;;4990774;28;20083;-67
2023/01/19 12:41:36;;;;;;;19.25;9.18;;;3.60;99.90;;;;;;4975317;28;20050;-66
2023/01/19 12:44:15;;;;;;;15.65;8.93;;;3.50;99.90;;;;;;4990578;28;20547;-67
2023/01/19 12:47:02;;;;;;;27.15;9.30;;;3.40;99.90;;;;;;4990417;28;20038;-65
2023/01/19 12:49:37;;;;;;;20.00;8.88;;;3.30;99.90;;;;;;4977430;28;20452;-65
2023/01/19 12:52:29;;;;;;;;;;;3.40;99.90;;;;;;4989318;28;20030;-65
2023/01/19 12:55:13;;;;;;;17.83;9.00;;;3.40;99.90;;;;;;4962087;28;19910;-65
2023/01/19 12:58:00;;;;;;;16.83;9.52;;;3.40;99.90;;;;;;4981471;28;20121;-66
2023/01/19 13:00:36;;;;;;;20.75;8.27;;;3.40;99.90;;;;;;4976681;28;20038;-64
2023/01/19 13:03:23;;;;;;;21.83;10.07;;;3.30;99.90;;;;;;4985892;28;20440;-65
2023/01/19 13:05:52;;;;;;;39.50;16.20;;;3.30;99.90;;;;;;4985413;28;20034;-65
2023/01/19 13:08:19;;;;;;;31.10;13.43;;;3.20;99.90;;;;;;4984188;28;20026;-65
2023/01/19 13:11:01;;;;;;;29.65;11.07;;;3.10;99.90;;;;;;4981924;28;20074;-65